sensor_id;sensor_type;location;lat;lon;timestamp;P1;durP1;ratioP1;P2;durP2;ratioP2
75858;SDS011;64504;51.308;8.620;2023-04-29T00:01:07;5.03;;;3.85;;
75858;SDS011;64504;51.308;8.620;2023-04-29T00:03:34;4.10;;;3.70;;
75858;SDS011;64504;51.308;8.620;2023-04-29T00:06:00;5.22;;;2.88;;
75858;SDS011;64504;51.308;8.620;2023-04-29T00:08:27;4.45;;;4.13;;
75858;SDS011;64504;51.308;8.620;2023-04-29T00:10:54;5.25;;;3.35;;
75858;SDS011;64504;51.308;8.620;2023-04-29T00:13:20;3.70;;;2.88;;
75858;SDS011;64504;51.308;8.620;2023-04-29T00:15:46;3.45;;;3.03;;
75858;SDS011;64504;51.308;8.620;2023-04-29T00:18:12;2.55;;;2.35;;
75858;SDS011;64504;51.308;8.620;2023-04-29T00:20:38;2.67;;;2.47;;
75858;SDS011;64504;51.308;8.620;2023-04-29T00:23:04;2.55;;;2.22;;
75858;SDS011;64504;51.308;8.620;2023-04-29T00:25:32;11.93;;;3.25;;
75858;SDS011;64504;51.308;8.620;2023-04-29T00:27:58;2.78;;;1.77;;
75858;SDS011;64504;51.308;8.620;2023-04-29T00:30:26;6.40;;;2.95;;
75858;SDS011;64504;51.308;8.620;2023-04-29T00:32:53;3.53;;;3.28;;
75858;SDS011;64504;51.308;8.620;2023-04-29T00:35:19;3.35;;;3.05;;
75858;SDS011;64504;51.308;8.620;2023-04-29T00:37:47;9.90;;;3.55;;
75858;SDS011;64504;51.308;8.620;2023-04-29T00:40:12;5.28;;;3.88;;
75858;SDS011;64504;51.308;8.620;2023-04-29T00:42:39;5.22;;;3.92;;
75858;SDS011;64504;51.308;8.620;2023-04-29T00:45:06;6.45;;;4.70;;
75858;SDS011;64504;51.308;8.620;2023-04-29T00:47:35;5.88;;;5.15;;
75858;SDS011;64504;51.308;8.620;2023-04-29T00:50:03;4.30;;;3.88;;
75858;SDS011;64504;51.308;8.620;2023-04-29T00:52:29;7.00;;;5.43;;
75858;SDS011;64504;51.308;8.620;2023-04-29T00:54:58;6.75;;;6.15;;
75858;SDS011;64504;51.308;8.620;2023-04-29T00:57:24;8.38;;;6.47;;
75858;SDS011;64504;51.308;8.620;2023-04-29T00:59:53;8.90;;;7.35;;
75858;SDS011;64504;51.308;8.620;2023-04-29T01:02:19;14.73;;;9.13;;
75858;SDS011;64504;51.308;8.620;2023-04-29T01:04:45;11.73;;;10.15;;
75858;SDS011;64504;51.308;8.620;2023-04-29T01:07:19;15.75;;;9.95;;
75858;SDS011;64504;51.308;8.620;2023-04-29T01:12:45;13.10;;;9.73;;
75858;SDS011;64504;51.308;8.620;2023-04-29T01:15:32;15.15;;;8.88;;
75858;SDS011;64504;51.308;8.620;2023-04-29T01:18:14;14.65;;;9.30;;
75858;SDS011;64504;51.308;8.620;2023-04-29T01:20:44;10.10;;;9.18;;
75858;SDS011;64504;51.308;8.620;2023-04-29T01:23:10;18.00;;;10.68;;
75858;SDS011;64504;51.308;8.620;2023-04-29T01:25:36;14.45;;;11.55;;
75858;SDS011;64504;51.308;8.620;2023-04-29T01:28:23;13.98;;;12.18;;
75858;SDS011;64504;51.308;8.620;2023-04-29T01:31:05;14.88;;;10.80;;
75858;SDS011;64504;51.308;8.620;2023-04-29T01:33:45;16.67;;;11.80;;
75858;SDS011;64504;51.308;8.620;2023-04-29T01:36:25;11.10;;;10.00;;
75858;SDS011;64504;51.308;8.620;2023-04-29T01:44:16;11.32;;;9.13;;
75858;SDS011;64504;51.308;8.620;2023-04-29T01:46:48;11.45;;;8.90;;
75858;SDS011;64504;51.308;8.620;2023-04-29T01:49:15;15.43;;;13.00;;
75858;SDS011;64504;51.308;8.620;2023-04-29T01:51:40;13.05;;;11.60;;
75858;SDS011;64504;51.308;8.620;2023-04-29T01:54:06;15.27;;;13.02;;
75858;SDS011;64504;51.308;8.620;2023-04-29T01:56:31;12.50;;;11.25;;
75858;SDS011;64504;51.308;8.620;2023-04-29T01:58:57;15.95;;;13.20;;
75858;SDS011;64504;51.308;8.620;2023-04-29T02:01:23;20.73;;;14.63;;
75858;SDS011;64504;51.308;8.620;2023-04-29T02:03:49;16.92;;;12.65;;
75858;SDS011;64504;51.308;8.620;2023-04-29T02:06:14;17.63;;;15.73;;
75858;SDS011;64504;51.308;8.620;2023-04-29T02:08:40;16.60;;;14.88;;
75858;SDS011;64504;51.308;8.620;2023-04-29T02:11:05;19.17;;;13.73;;
75858;SDS011;64504;51.308;8.620;2023-04-29T02:13:31;16.85;;;13.40;;
75858;SDS011;64504;51.308;8.620;2023-04-29T02:15:56;16.83;;;12.65;;
75858;SDS011;64504;51.308;8.620;2023-04-29T02:18:22;15.35;;;11.20;;
75858;SDS011;64504;51.308;8.620;2023-04-29T02:20:47;23.25;;;12.02;;
75858;SDS011;64504;51.308;8.620;2023-04-29T02:23:15;11.30;;;9.88;;
75858;SDS011;64504;51.308;8.620;2023-04-29T02:25:40;13.38;;;9.45;;
75858;SDS011;64504;51.308;8.620;2023-04-29T02:28:06;11.43;;;10.15;;
75858;SDS011;64504;51.308;8.620;2023-04-29T02:30:31;12.70;;;10.68;;
75858;SDS011;64504;51.308;8.620;2023-04-29T02:32:57;12.10;;;10.88;;
75858;SDS011;64504;51.308;8.620;2023-04-29T02:35:22;11.02;;;9.30;;
75858;SDS011;64504;51.308;8.620;2023-04-29T02:37:49;10.40;;;9.40;;
75858;SDS011;64504;51.308;8.620;2023-04-29T02:40:14;12.55;;;9.63;;
75858;SDS011;64504;51.308;8.620;2023-04-29T02:42:40;11.35;;;9.23;;
75858;SDS011;64504;51.308;8.620;2023-04-29T02:45:06;14.68;;;12.02;;
75858;SDS011;64504;51.308;8.620;2023-04-29T02:47:32;10.55;;;9.48;;
75858;SDS011;64504;51.308;8.620;2023-04-29T02:49:58;19.58;;;12.18;;
75858;SDS011;64504;51.308;8.620;2023-04-29T02:52:23;14.35;;;12.02;;
75858;SDS011;64504;51.308;8.620;2023-04-29T02:54:49;13.48;;;10.65;;
75858;SDS011;64504;51.308;8.620;2023-04-29T02:57:14;16.20;;;11.95;;
75858;SDS011;64504;51.308;8.620;2023-04-29T02:59:39;11.73;;;10.13;;
75858;SDS011;64504;51.308;8.620;2023-04-29T03:02:05;12.52;;;10.50;;
75858;SDS011;64504;51.308;8.620;2023-04-29T03:04:30;17.58;;;12.98;;
75858;SDS011;64504;51.308;8.620;2023-04-29T03:06:56;13.10;;;10.40;;
75858;SDS011;64504;51.308;8.620;2023-04-29T03:09:22;11.23;;;9.82;;
75858;SDS011;64504;51.308;8.620;2023-04-29T03:11:47;23.02;;;11.85;;
75858;SDS011;64504;51.308;8.620;2023-04-29T03:14:13;11.48;;;9.73;;
75858;SDS011;64504;51.308;8.620;2023-04-29T03:16:38;13.02;;;9.88;;
75858;SDS011;64504;51.308;8.620;2023-04-29T03:19:04;9.82;;;7.82;;
75858;SDS011;64504;51.308;8.620;2023-04-29T03:21:30;15.93;;;9.85;;
75858;SDS011;64504;51.308;8.620;2023-04-29T03:23:56;11.88;;;10.63;;
75858;SDS011;64504;51.308;8.620;2023-04-29T03:26:22;12.90;;;8.10;;
75858;SDS011;64504;51.308;8.620;2023-04-29T03:28:48;10.73;;;7.95;;
75858;SDS011;64504;51.308;8.620;2023-04-29T03:31:14;14.07;;;9.25;;
75858;SDS011;64504;51.308;8.620;2023-04-29T03:33:42;10.05;;;9.00;;
75858;SDS011;64504;51.308;8.620;2023-04-29T03:36:07;8.95;;;6.60;;
75858;SDS011;64504;51.308;8.620;2023-04-29T03:38:33;10.98;;;6.43;;
75858;SDS011;64504;51.308;8.620;2023-04-29T03:40:59;8.38;;;7.22;;
75858;SDS011;64504;51.308;8.620;2023-04-29T03:43:26;9.52;;;6.13;;
75858;SDS011;64504;51.308;8.620;2023-04-29T03:45:51;6.60;;;6.00;;
75858;SDS011;64504;51.308;8.620;2023-04-29T03:48:17;6.45;;;5.75;;
75858;SDS011;64504;51.308;8.620;2023-04-29T03:50:44;6.32;;;5.65;;
75858;SDS011;64504;51.308;8.620;2023-04-29T03:53:10;10.18;;;6.78;;
75858;SDS011;64504;51.308;8.620;2023-04-29T03:55:36;6.78;;;5.85;;
75858;SDS011;64504;51.308;8.620;2023-04-29T03:58:01;10.00;;;5.80;;
75858;SDS011;64504;51.308;8.620;2023-04-29T04:00:27;6.35;;;5.35;;
75858;SDS011;64504;51.308;8.620;2023-04-29T04:02:55;6.45;;;5.78;;
75858;SDS011;64504;51.308;8.620;2023-04-29T04:05:22;8.75;;;4.82;;
75858;SDS011;64504;51.308;8.620;2023-04-29T04:07:50;7.88;;;6.25;;
75858;SDS011;64504;51.308;8.620;2023-04-29T04:10:19;6.97;;;6.10;;
75858;SDS011;64504;51.308;8.620;2023-04-29T04:12:45;5.80;;;4.55;;
75858;SDS011;64504;51.308;8.620;2023-04-29T04:15:11;6.32;;;4.60;;
75858;SDS011;64504;51.308;8.620;2023-04-29T04:17:37;5.90;;;5.03;;
75858;SDS011;64504;51.308;8.620;2023-04-29T04:20:02;6.55;;;5.38;;
75858;SDS011;64504;51.308;8.620;2023-04-29T04:22:28;5.82;;;4.20;;
75858;SDS011;64504;51.308;8.620;2023-04-29T04:24:56;6.10;;;4.75;;
75858;SDS011;64504;51.308;8.620;2023-04-29T04:27:21;6.07;;;4.50;;
75858;SDS011;64504;51.308;8.620;2023-04-29T04:29:47;6.85;;;4.32;;
75858;SDS011;64504;51.308;8.620;2023-04-29T04:32:12;7.50;;;4.32;;
75858;SDS011;64504;51.308;8.620;2023-04-29T04:34:38;5.47;;;3.15;;
75858;SDS011;64504;51.308;8.620;2023-04-29T04:37:04;7.22;;;4.82;;
75858;SDS011;64504;51.308;8.620;2023-04-29T04:39:30;5.88;;;5.28;;
75858;SDS011;64504;51.308;8.620;2023-04-29T04:41:56;7.68;;;5.32;;
75858;SDS011;64504;51.308;8.620;2023-04-29T04:44:21;6.22;;;4.68;;
75858;SDS011;64504;51.308;8.620;2023-04-29T04:46:47;7.65;;;4.78;;
75858;SDS011;64504;51.308;8.620;2023-04-29T04:49:12;7.43;;;6.65;;
75858;SDS011;64504;51.308;8.620;2023-04-29T04:51:38;7.20;;;6.13;;
75858;SDS011;64504;51.308;8.620;2023-04-29T04:54:06;9.45;;;6.18;;
75858;SDS011;64504;51.308;8.620;2023-04-29T04:56:31;7.07;;;5.88;;
75858;SDS011;64504;51.308;8.620;2023-04-29T04:58:57;9.95;;;5.80;;
75858;SDS011;64504;51.308;8.620;2023-04-29T05:01:22;5.50;;;4.97;;
75858;SDS011;64504;51.308;8.620;2023-04-29T05:03:48;8.50;;;5.70;;
75858;SDS011;64504;51.308;8.620;2023-04-29T05:06:13;11.95;;;5.80;;
75858;SDS011;64504;51.308;8.620;2023-04-29T05:08:39;6.97;;;4.68;;
75858;SDS011;64504;51.308;8.620;2023-04-29T05:11:05;6.90;;;6.20;;
75858;SDS011;64504;51.308;8.620;2023-04-29T05:13:32;10.68;;;7.10;;
75858;SDS011;64504;51.308;8.620;2023-04-29T05:16:00;9.93;;;7.15;;
75858;SDS011;64504;51.308;8.620;2023-04-29T05:18:27;6.28;;;5.40;;
75858;SDS011;64504;51.308;8.620;2023-04-29T05:20:52;9.65;;;5.93;;
75858;SDS011;64504;51.308;8.620;2023-04-29T05:23:18;8.18;;;6.22;;
75858;SDS011;64504;51.308;8.620;2023-04-29T05:25:45;11.32;;;7.53;;
75858;SDS011;64504;51.308;8.620;2023-04-29T05:28:11;8.32;;;6.53;;
75858;SDS011;64504;51.308;8.620;2023-04-29T05:30:36;7.53;;;5.25;;
75858;SDS011;64504;51.308;8.620;2023-04-29T05:33:02;7.53;;;6.10;;
75858;SDS011;64504;51.308;8.620;2023-04-29T05:35:27;8.40;;;6.15;;
75858;SDS011;64504;51.308;8.620;2023-04-29T05:37:53;8.25;;;6.60;;
75858;SDS011;64504;51.308;8.620;2023-04-29T05:40:19;11.13;;;7.20;;
75858;SDS011;64504;51.308;8.620;2023-04-29T05:42:44;11.20;;;7.55;;
75858;SDS011;64504;51.308;8.620;2023-04-29T05:45:11;11.73;;;7.53;;
75858;SDS011;64504;51.308;8.620;2023-04-29T05:47:36;9.43;;;6.55;;
75858;SDS011;64504;51.308;8.620;2023-04-29T05:50:02;7.30;;;6.55;;
75858;SDS011;64504;51.308;8.620;2023-04-29T05:52:28;10.30;;;7.20;;
75858;SDS011;64504;51.308;8.620;2023-04-29T05:54:54;8.93;;;7.07;;
75858;SDS011;64504;51.308;8.620;2023-04-29T05:57:20;11.60;;;8.65;;
75858;SDS011;64504;51.308;8.620;2023-04-29T05:59:46;11.43;;;7.93;;
75858;SDS011;64504;51.308;8.620;2023-04-29T06:02:11;9.32;;;7.80;;
75858;SDS011;64504;51.308;8.620;2023-04-29T06:04:37;12.30;;;9.23;;
75858;SDS011;64504;51.308;8.620;2023-04-29T06:07:03;12.23;;;9.07;;
75858;SDS011;64504;51.308;8.620;2023-04-29T06:09:29;10.95;;;9.45;;
75858;SDS011;64504;51.308;8.620;2023-04-29T06:11:54;10.07;;;7.65;;
75858;SDS011;64504;51.308;8.620;2023-04-29T06:14:20;14.68;;;9.48;;
75858;SDS011;64504;51.308;8.620;2023-04-29T06:16:45;12.10;;;8.57;;
75858;SDS011;64504;51.308;8.620;2023-04-29T06:19:11;14.73;;;10.55;;
75858;SDS011;64504;51.308;8.620;2023-04-29T06:21:37;13.93;;;9.77;;
75858;SDS011;64504;51.308;8.620;2023-04-29T06:24:02;9.05;;;7.68;;
75858;SDS011;64504;51.308;8.620;2023-04-29T06:26:29;10.95;;;9.23;;
75858;SDS011;64504;51.308;8.620;2023-04-29T06:28:55;13.35;;;8.40;;
75858;SDS011;64504;51.308;8.620;2023-04-29T06:31:21;10.52;;;8.48;;
75858;SDS011;64504;51.308;8.620;2023-04-29T06:33:46;9.30;;;6.63;;
75858;SDS011;64504;51.308;8.620;2023-04-29T06:36:12;11.57;;;8.57;;
75858;SDS011;64504;51.308;8.620;2023-04-29T06:38:40;8.18;;;7.00;;
75858;SDS011;64504;51.308;8.620;2023-04-29T06:41:06;10.70;;;6.40;;
75858;SDS011;64504;51.308;8.620;2023-04-29T06:43:31;11.82;;;8.55;;
75858;SDS011;64504;51.308;8.620;2023-04-29T06:45:57;7.97;;;5.90;;
75858;SDS011;64504;51.308;8.620;2023-04-29T06:48:24;7.05;;;5.38;;
75858;SDS011;64504;51.308;8.620;2023-04-29T06:50:54;7.93;;;5.90;;
75858;SDS011;64504;51.308;8.620;2023-04-29T06:53:21;11.63;;;8.35;;
75858;SDS011;64504;51.308;8.620;2023-04-29T06:55:47;8.88;;;6.75;;
75858;SDS011;64504;51.308;8.620;2023-04-29T06:58:15;9.18;;;7.10;;
75858;SDS011;64504;51.308;8.620;2023-04-29T07:00:46;9.65;;;5.40;;
75858;SDS011;64504;51.308;8.620;2023-04-29T07:03:12;8.43;;;6.78;;
75858;SDS011;64504;51.308;8.620;2023-04-29T07:05:39;6.93;;;5.43;;
75858;SDS011;64504;51.308;8.620;2023-04-29T07:08:06;9.50;;;5.57;;
75858;SDS011;64504;51.308;8.620;2023-04-29T07:10:33;8.68;;;6.15;;
75858;SDS011;64504;51.308;8.620;2023-04-29T07:12:59;8.63;;;6.35;;
75858;SDS011;64504;51.308;8.620;2023-04-29T07:15:28;5.85;;;5.03;;
75858;SDS011;64504;51.308;8.620;2023-04-29T07:17:55;8.20;;;6.10;;
75858;SDS011;64504;51.308;8.620;2023-04-29T07:20:21;7.53;;;5.63;;
75858;SDS011;64504;51.308;8.620;2023-04-29T07:22:47;6.32;;;5.53;;
75858;SDS011;64504;51.308;8.620;2023-04-29T07:25:12;5.15;;;4.63;;
75858;SDS011;64504;51.308;8.620;2023-04-29T07:27:39;7.63;;;5.45;;
75858;SDS011;64504;51.308;8.620;2023-04-29T07:30:05;6.28;;;5.43;;
75858;SDS011;64504;51.308;8.620;2023-04-29T07:32:31;5.80;;;5.10;;
75858;SDS011;64504;51.308;8.620;2023-04-29T07:34:57;7.70;;;6.05;;
75858;SDS011;64504;51.308;8.620;2023-04-29T07:37:24;8.82;;;5.90;;
75858;SDS011;64504;51.308;8.620;2023-04-29T07:39:50;5.15;;;4.65;;
75858;SDS011;64504;51.308;8.620;2023-04-29T07:42:16;6.18;;;4.78;;
75858;SDS011;64504;51.308;8.620;2023-04-29T07:44:41;7.20;;;4.25;;
75858;SDS011;64504;51.308;8.620;2023-04-29T07:47:09;5.45;;;4.93;;
75858;SDS011;64504;51.308;8.620;2023-04-29T07:49:36;5.70;;;4.72;;
75858;SDS011;64504;51.308;8.620;2023-04-29T07:52:05;3.97;;;3.63;;
75858;SDS011;64504;51.308;8.620;2023-04-29T07:54:31;4.82;;;4.13;;
75858;SDS011;64504;51.308;8.620;2023-04-29T07:56:57;3.92;;;3.45;;
75858;SDS011;64504;51.308;8.620;2023-04-29T07:59:23;6.07;;;4.78;;
75858;SDS011;64504;51.308;8.620;2023-04-29T08:01:49;6.20;;;4.00;;
75858;SDS011;64504;51.308;8.620;2023-04-29T08:04:14;5.70;;;4.90;;
75858;SDS011;64504;51.308;8.620;2023-04-29T08:06:40;6.07;;;4.88;;
75858;SDS011;64504;51.308;8.620;2023-04-29T08:09:06;4.32;;;4.00;;
75858;SDS011;64504;51.308;8.620;2023-04-29T08:11:35;3.47;;;3.17;;
75858;SDS011;64504;51.308;8.620;2023-04-29T08:14:01;5.43;;;3.55;;
75858;SDS011;64504;51.308;8.620;2023-04-29T08:16:28;4.10;;;3.33;;
75858;SDS011;64504;51.308;8.620;2023-04-29T08:18:56;4.28;;;3.38;;
75858;SDS011;64504;51.308;8.620;2023-04-29T08:21:23;4.00;;;3.40;;
75858;SDS011;64504;51.308;8.620;2023-04-29T08:23:52;3.88;;;2.95;;
75858;SDS011;64504;51.308;8.620;2023-04-29T08:26:19;4.60;;;3.47;;
75858;SDS011;64504;51.308;8.620;2023-04-29T08:28:46;3.65;;;3.35;;
75858;SDS011;64504;51.308;8.620;2023-04-29T08:31:21;2.95;;;2.38;;
75858;SDS011;64504;51.308;8.620;2023-04-29T08:34:00;2.85;;;2.60;;
75858;SDS011;64504;51.308;8.620;2023-04-29T08:36:32;2.08;;;1.95;;
75858;SDS011;64504;51.308;8.620;2023-04-29T08:39:00;3.15;;;2.53;;
75858;SDS011;64504;51.308;8.620;2023-04-29T08:41:30;3.08;;;2.58;;
75858;SDS011;64504;51.308;8.620;2023-04-29T08:43:58;2.58;;;2.13;;
75858;SDS011;64504;51.308;8.620;2023-04-29T08:46:24;8.38;;;4.55;;
75858;SDS011;64504;51.308;8.620;2023-04-29T08:48:50;3.65;;;2.40;;
75858;SDS011;64504;51.308;8.620;2023-04-29T08:51:17;4.13;;;3.45;;
75858;SDS011;64504;51.308;8.620;2023-04-29T08:53:42;4.95;;;2.90;;
75858;SDS011;64504;51.308;8.620;2023-04-29T08:56:12;6.15;;;4.45;;
75858;SDS011;64504;51.308;8.620;2023-04-29T08:58:42;7.32;;;5.05;;
75858;SDS011;64504;51.308;8.620;2023-04-29T09:01:11;8.07;;;4.07;;
75858;SDS011;64504;51.308;8.620;2023-04-29T09:06:36;6.40;;;4.63;;
75858;SDS011;64504;51.308;8.620;2023-04-29T09:09:02;6.05;;;5.40;;
75858;SDS011;64504;51.308;8.620;2023-04-29T09:11:28;7.60;;;6.63;;
75858;SDS011;64504;51.308;8.620;2023-04-29T09:13:58;8.25;;;7.40;;
75858;SDS011;64504;51.308;8.620;2023-04-29T09:18:56;9.77;;;8.77;;
75858;SDS011;64504;51.308;8.620;2023-04-29T09:21:32;7.65;;;6.95;;
75858;SDS011;64504;51.308;8.620;2023-04-29T09:24:03;13.77;;;8.27;;
75858;SDS011;64504;51.308;8.620;2023-04-29T09:26:40;10.13;;;7.78;;
75858;SDS011;64504;51.308;8.620;2023-04-29T09:29:11;9.38;;;8.32;;
75858;SDS011;64504;51.308;8.620;2023-04-29T09:31:41;9.30;;;8.35;;
75858;SDS011;64504;51.308;8.620;2023-04-29T09:34:08;11.73;;;8.00;;
75858;SDS011;64504;51.308;8.620;2023-04-29T09:41:55;9.05;;;7.85;;
75858;SDS011;64504;51.308;8.620;2023-04-29T09:44:30;9.25;;;7.45;;
75858;SDS011;64504;51.308;8.620;2023-04-29T09:47:05;15.05;;;12.43;;
75858;SDS011;64504;51.308;8.620;2023-04-29T09:49:32;13.45;;;11.95;;
75858;SDS011;64504;51.308;8.620;2023-04-29T09:52:06;14.68;;;13.02;;
75858;SDS011;64504;51.308;8.620;2023-04-29T09:54:34;15.30;;;12.75;;
75858;SDS011;64504;51.308;8.620;2023-04-29T09:57:03;14.68;;;11.75;;
75858;SDS011;64504;51.308;8.620;2023-04-29T09:59:31;19.50;;;15.95;;
75858;SDS011;64504;51.308;8.620;2023-04-29T10:04:52;21.75;;;16.60;;
75858;SDS011;64504;51.308;8.620;2023-04-29T10:07:23;24.75;;;16.67;;
75858;SDS011;64504;51.308;8.620;2023-04-29T10:09:50;19.25;;;15.82;;
75858;SDS011;64504;51.308;8.620;2023-04-29T10:12:18;20.17;;;16.77;;
75858;SDS011;64504;51.308;8.620;2023-04-29T10:15:03;21.33;;;17.05;;
75858;SDS011;64504;51.308;8.620;2023-04-29T10:17:45;25.13;;;17.98;;
75858;SDS011;64504;51.308;8.620;2023-04-29T10:20:14;24.98;;;17.63;;
75858;SDS011;64504;51.308;8.620;2023-04-29T10:22:49;27.65;;;20.30;;
75858;SDS011;64504;51.308;8.620;2023-04-29T10:25:23;25.90;;;18.27;;
75858;SDS011;64504;51.308;8.620;2023-04-29T10:27:49;26.27;;;20.40;;
75858;SDS011;64504;51.308;8.620;2023-04-29T10:30:18;32.78;;;21.00;;
75858;SDS011;64504;51.308;8.620;2023-04-29T10:32:44;30.73;;;21.23;;
75858;SDS011;64504;51.308;8.620;2023-04-29T10:35:13;26.42;;;18.48;;
75858;SDS011;64504;51.308;8.620;2023-04-29T10:37:40;23.50;;;19.45;;
75858;SDS011;64504;51.308;8.620;2023-04-29T10:42:53;33.95;;;22.40;;
75858;SDS011;64504;51.308;8.620;2023-04-29T10:45:30;37.35;;;24.50;;
75858;SDS011;64504;51.308;8.620;2023-04-29T10:53:15;25.92;;;22.38;;
75858;SDS011;64504;51.308;8.620;2023-04-29T10:55:49;30.73;;;22.73;;
75858;SDS011;64504;51.308;8.620;2023-04-29T11:01:06;23.88;;;20.15;;
75858;SDS011;64504;51.308;8.620;2023-04-29T11:09:07;23.13;;;19.08;;
75858;SDS011;64504;51.308;8.620;2023-04-29T11:11:59;22.35;;;20.15;;
75858;SDS011;64504;51.308;8.620;2023-04-29T11:14:38;25.73;;;20.33;;
75858;SDS011;64504;51.308;8.620;2023-04-29T11:19:36;22.40;;;19.90;;
75858;SDS011;64504;51.308;8.620;2023-04-29T11:22:09;32.88;;;22.00;;
75858;SDS011;64504;51.308;8.620;2023-04-29T11:24:36;29.60;;;20.33;;
75858;SDS011;64504;51.308;8.620;2023-04-29T11:27:02;24.83;;;21.10;;
75858;SDS011;64504;51.308;8.620;2023-04-29T11:29:31;25.75;;;21.15;;
75858;SDS011;64504;51.308;8.620;2023-04-29T11:31:58;27.85;;;20.13;;
75858;SDS011;64504;51.308;8.620;2023-04-29T11:34:26;26.88;;;18.73;;
75858;SDS011;64504;51.308;8.620;2023-04-29T11:36:52;27.27;;;22.55;;
75858;SDS011;64504;51.308;8.620;2023-04-29T11:39:17;26.63;;;21.15;;
75858;SDS011;64504;51.308;8.620;2023-04-29T11:41:43;24.63;;;20.02;;
75858;SDS011;64504;51.308;8.620;2023-04-29T11:44:08;23.90;;;19.48;;
75858;SDS011;64504;51.308;8.620;2023-04-29T11:46:36;22.13;;;19.52;;
75858;SDS011;64504;51.308;8.620;2023-04-29T11:49:02;30.17;;;20.42;;
75858;SDS011;64504;51.308;8.620;2023-04-29T11:51:28;22.50;;;17.33;;
75858;SDS011;64504;51.308;8.620;2023-04-29T11:53:53;22.00;;;19.73;;
75858;SDS011;64504;51.308;8.620;2023-04-29T11:56:21;23.52;;;19.98;;
75858;SDS011;64504;51.308;8.620;2023-04-29T11:58:52;23.65;;;18.10;;
75858;SDS011;64504;51.308;8.620;2023-04-29T12:01:20;20.42;;;18.10;;
75858;SDS011;64504;51.308;8.620;2023-04-29T12:03:47;23.27;;;18.23;;
75858;SDS011;64504;51.308;8.620;2023-04-29T12:06:14;19.45;;;16.52;;
75858;SDS011;64504;51.308;8.620;2023-04-29T12:08:40;21.05;;;17.10;;
75858;SDS011;64504;51.308;8.620;2023-04-29T12:11:06;20.48;;;17.70;;
75858;SDS011;64504;51.308;8.620;2023-04-29T12:13:32;21.02;;;18.02;;
75858;SDS011;64504;51.308;8.620;2023-04-29T12:16:00;23.88;;;17.90;;
75858;SDS011;64504;51.308;8.620;2023-04-29T12:18:26;26.50;;;20.25;;
75858;SDS011;64504;51.308;8.620;2023-04-29T12:20:53;27.60;;;20.50;;
75858;SDS011;64504;51.308;8.620;2023-04-29T12:23:23;24.95;;;22.05;;
75858;SDS011;64504;51.308;8.620;2023-04-29T12:25:56;33.83;;;23.27;;
75858;SDS011;64504;51.308;8.620;2023-04-29T12:28:22;24.92;;;20.65;;
75858;SDS011;64504;51.308;8.620;2023-04-29T12:30:49;26.63;;;22.63;;
75858;SDS011;64504;51.308;8.620;2023-04-29T12:33:20;29.60;;;22.67;;
75858;SDS011;64504;51.308;8.620;2023-04-29T12:35:47;27.45;;;23.38;;
75858;SDS011;64504;51.308;8.620;2023-04-29T12:38:21;27.63;;;23.88;;
75858;SDS011;64504;51.308;8.620;2023-04-29T12:40:51;24.88;;;22.15;;
75858;SDS011;64504;51.308;8.620;2023-04-29T12:43:16;29.73;;;24.10;;
75858;SDS011;64504;51.308;8.620;2023-04-29T12:45:44;22.38;;;19.90;;
75858;SDS011;64504;51.308;8.620;2023-04-29T12:48:09;32.10;;;22.67;;
75858;SDS011;64504;51.308;8.620;2023-04-29T12:50:36;32.10;;;23.23;;
75858;SDS011;64504;51.308;8.620;2023-04-29T12:53:06;24.35;;;21.77;;
75858;SDS011;64504;51.308;8.620;2023-04-29T12:55:36;21.77;;;19.50;;
75858;SDS011;64504;51.308;8.620;2023-04-29T12:58:02;21.30;;;19.13;;
75858;SDS011;64504;51.308;8.620;2023-04-29T13:00:29;25.77;;;21.52;;
75858;SDS011;64504;51.308;8.620;2023-04-29T13:02:55;23.38;;;20.20;;
75858;SDS011;64504;51.308;8.620;2023-04-29T13:05:21;25.38;;;22.23;;
75858;SDS011;64504;51.308;8.620;2023-04-29T13:07:47;25.02;;;18.80;;
75858;SDS011;64504;51.308;8.620;2023-04-29T13:10:13;22.50;;;19.98;;
75858;SDS011;64504;51.308;8.620;2023-04-29T13:12:42;22.58;;;17.80;;
75858;SDS011;64504;51.308;8.620;2023-04-29T13:15:09;20.77;;;15.73;;
75858;SDS011;64504;51.308;8.620;2023-04-29T13:17:35;19.58;;;16.77;;
75858;SDS011;64504;51.308;8.620;2023-04-29T13:20:04;20.23;;;16.85;;
75858;SDS011;64504;51.308;8.620;2023-04-29T13:22:31;23.27;;;19.25;;
75858;SDS011;64504;51.308;8.620;2023-04-29T13:24:56;20.20;;;16.23;;
75858;SDS011;64504;51.308;8.620;2023-04-29T13:27:22;18.23;;;16.35;;
75858;SDS011;64504;51.308;8.620;2023-04-29T13:29:47;21.00;;;17.13;;
75858;SDS011;64504;51.308;8.620;2023-04-29T13:32:13;19.40;;;17.30;;
75858;SDS011;64504;51.308;8.620;2023-04-29T13:34:40;20.33;;;16.17;;
75858;SDS011;64504;51.308;8.620;2023-04-29T13:37:09;19.55;;;16.38;;
75858;SDS011;64504;51.308;8.620;2023-04-29T13:39:36;19.05;;;17.10;;
75858;SDS011;64504;51.308;8.620;2023-04-29T13:42:02;18.10;;;16.25;;
75858;SDS011;64504;51.308;8.620;2023-04-29T13:44:34;18.42;;;16.52;;
75858;SDS011;64504;51.308;8.620;2023-04-29T13:47:02;17.58;;;15.63;;
75858;SDS011;64504;51.308;8.620;2023-04-29T13:49:28;19.33;;;16.38;;
75858;SDS011;64504;51.308;8.620;2023-04-29T13:51:53;26.92;;;17.52;;
75858;SDS011;64504;51.308;8.620;2023-04-29T13:54:19;18.05;;;16.15;;
75858;SDS011;64504;51.308;8.620;2023-04-29T13:56:45;21.50;;;16.88;;
75858;SDS011;64504;51.308;8.620;2023-04-29T13:59:11;18.98;;;16.98;;
75858;SDS011;64504;51.308;8.620;2023-04-29T14:01:36;23.65;;;16.98;;
75858;SDS011;64504;51.308;8.620;2023-04-29T14:04:02;19.48;;;16.70;;
75858;SDS011;64504;51.308;8.620;2023-04-29T14:06:27;18.45;;;16.15;;
75858;SDS011;64504;51.308;8.620;2023-04-29T14:08:54;19.48;;;16.42;;
75858;SDS011;64504;51.308;8.620;2023-04-29T14:11:20;18.10;;;15.90;;
75858;SDS011;64504;51.308;8.620;2023-04-29T14:13:45;21.35;;;18.05;;
75858;SDS011;64504;51.308;8.620;2023-04-29T14:16:11;35.03;;;18.77;;
75858;SDS011;64504;51.308;8.620;2023-04-29T14:18:36;21.52;;;18.75;;
75858;SDS011;64504;51.308;8.620;2023-04-29T14:21:03;20.38;;;18.17;;
75858;SDS011;64504;51.308;8.620;2023-04-29T14:23:28;24.42;;;20.80;;
75858;SDS011;64504;51.308;8.620;2023-04-29T14:25:54;23.35;;;17.70;;
75858;SDS011;64504;51.308;8.620;2023-04-29T14:28:20;21.77;;;19.42;;
75858;SDS011;64504;51.308;8.620;2023-04-29T14:30:46;28.27;;;20.75;;
75858;SDS011;64504;51.308;8.620;2023-04-29T14:33:12;21.10;;;18.27;;
75858;SDS011;64504;51.308;8.620;2023-04-29T14:35:37;24.58;;;19.25;;
75858;SDS011;64504;51.308;8.620;2023-04-29T14:38:03;24.05;;;18.95;;
75858;SDS011;64504;51.308;8.620;2023-04-29T14:40:29;21.60;;;19.42;;
75858;SDS011;64504;51.308;8.620;2023-04-29T14:42:55;24.77;;;19.17;;
75858;SDS011;64504;51.308;8.620;2023-04-29T14:45:21;32.65;;;21.02;;
75858;SDS011;64504;51.308;8.620;2023-04-29T14:47:47;23.35;;;20.52;;
75858;SDS011;64504;51.308;8.620;2023-04-29T14:50:12;27.65;;;20.67;;
75858;SDS011;64504;51.308;8.620;2023-04-29T14:52:37;28.65;;;18.90;;
75858;SDS011;64504;51.308;8.620;2023-04-29T14:55:04;25.70;;;19.98;;
75858;SDS011;64504;51.308;8.620;2023-04-29T14:57:30;32.25;;;17.90;;
75858;SDS011;64504;51.308;8.620;2023-04-29T14:59:55;30.38;;;18.42;;
75858;SDS011;64504;51.308;8.620;2023-04-29T15:02:22;23.73;;;20.33;;
75858;SDS011;64504;51.308;8.620;2023-04-29T15:04:48;20.05;;;16.33;;
75858;SDS011;64504;51.308;8.620;2023-04-29T15:07:14;22.25;;;17.75;;
75858;SDS011;64504;51.308;8.620;2023-04-29T15:09:40;20.15;;;17.70;;
75858;SDS011;64504;51.308;8.620;2023-04-29T15:12:06;21.95;;;16.48;;
75858;SDS011;64504;51.308;8.620;2023-04-29T15:14:32;20.08;;;17.92;;